Portada
METAR-TAF:

METAR-TAF

Aeropuertos :

Aeropuerto de Osijek

Osijek, Croacia

latitud: 45-27N, longitud: 018-48E, altitud: 88 m

Observación

El informe se hizo hace 38 minutos, a las 10:30 UTC
Viento 16 kt del norte-noroeste
Temperatura 9°C
Humedad 53%
Presión 1024 hPa
Visibilidad 10 km o más
Escasas nubes a una altura de 3000 ft

METAR: LDOS 201030Z 33016KT 9999 FEW030 09/00 Q1024

Hora: 12:08 (11:08 UTC)

Pronóstico

El informe se hizo hace 5 horas y 43 minutos, a las 05:25 UTC
Pronóstico válido del 20 a las 06 UTC al 21 a las 06 UTC
Viento 12 kt del noroeste
Visibilidad 10 km o más
Cielo nuboso a una altura de 4500 ft
Evolucionando progresivamente
del 20 a las 16 UTC al 20 a las 18 UTC
Viento 5 kt del oeste

TAF: LDOS 200525Z 2006/2106 32012KT 9999 BKN045 TX11/2014Z TN00/2105Z BECMG 2016/2018 26005KT

Observaciones y pronósticos meteorológicos de más de 4000 aeropuertos (mensajes METAR y TAF).

Los puntos amarillos y rojos representan las estaciones disponibles.

Ponga el ratón en el punto deseado para ver el nombre de la estación.

Haga clic para ver las observaciones y los pronósticos meteorológicos.

Para cambiar el mapa : haga clic en los botones verdes con una cruz de color negro para hacer un zoom, en el botón verde con un guión para alejar o en las flechas verdes para mapas adyacentes.


METAR-TAF: